createdAt,value
2023-03-20T09:56:42.517Z,12.19
2023-03-20T09:59:10.989Z,12.26
2023-03-20T10:01:48.597Z,12.40
2023-03-20T10:04:15.936Z,12.52
2023-03-20T10:06:43.057Z,12.58
2023-03-20T10:09:36.649Z,12.72
2023-03-20T10:12:42.947Z,12.93
2023-03-20T10:15:52.003Z,13.12
2023-03-20T10:18:26.173Z,13.22
2023-03-20T10:21:13.658Z,13.18
2023-03-20T10:23:43.150Z,13.28
2023-03-20T10:26:11.683Z,13.44
2023-03-20T10:29:05.114Z,13.63
2023-03-20T10:31:52.164Z,13.79
2023-03-20T10:34:28.777Z,13.83
2023-03-20T10:37:16.776Z,13.77
2023-03-20T10:39:51.089Z,13.67
2023-03-20T10:42:29.937Z,13.64
2023-03-20T10:45:27.171Z,13.80
2023-03-20T10:47:54.301Z,14.00
2023-03-20T10:50:23.489Z,14.13
2023-03-20T10:52:51.076Z,14.16
2023-03-20T10:55:24.237Z,14.10
2023-03-20T10:57:54.880Z,14.07
2023-03-20T11:00:23.132Z,14.18
2023-03-20T11:02:50.932Z,14.20
2023-03-20T11:05:20.079Z,14.20
2023-03-20T11:07:52.315Z,14.23
2023-03-20T11:10:19.152Z,14.28
2023-03-20T11:12:47.213Z,14.36
2023-03-20T11:15:21.887Z,14.46
2023-03-20T11:17:57.482Z,14.45
2023-03-20T11:20:35.983Z,14.54
2023-03-20T11:23:07.643Z,14.68
2023-03-20T11:25:38.176Z,14.85
2023-03-20T11:28:26.376Z,15.00
2023-03-20T11:31:04.884Z,15.21
2023-03-20T11:33:44.691Z,15.31
2023-03-20T11:36:27.778Z,15.38
2023-03-20T11:39:14.676Z,15.44
2023-03-20T11:41:50.367Z,15.32
2023-03-20T11:44:30.705Z,15.22
2023-03-20T11:47:05.070Z,15.22
2023-03-20T11:49:45.216Z,15.31
2023-03-20T11:52:13.246Z,15.46
2023-03-20T11:54:46.441Z,15.62
2023-03-20T11:57:34.726Z,15.59
2023-03-20T12:00:10.728Z,15.46
2023-03-20T12:02:41.549Z,15.48
2023-03-20T12:05:35.986Z,15.47
2023-03-20T12:08:13.148Z,15.54
2023-03-20T12:10:42.340Z,15.77
2023-03-20T12:13:42.089Z,15.97
2023-03-20T12:16:13.711Z,16.11
2023-03-20T12:18:59.851Z,16.21
2023-03-20T12:21:32.921Z,16.24
2023-03-20T12:24:09.251Z,16.18
2023-03-20T12:26:41.596Z,16.27
2023-03-20T12:29:32.035Z,16.41
2023-03-20T12:32:17.446Z,16.57
2023-03-20T12:34:47.231Z,16.63
2023-03-20T12:37:14.455Z,16.73
2023-03-20T12:39:54.193Z,16.86
2023-03-20T12:42:26.996Z,16.89
2023-03-20T12:45:03.567Z,16.80
2023-03-20T12:47:50.348Z,16.89
2023-03-20T12:50:36.486Z,17.14
2023-03-20T12:53:03.662Z,17.28
2023-03-20T12:55:30.637Z,17.25
2023-03-20T12:58:43.494Z,17.32
2023-03-20T13:01:20.729Z,17.29
2023-03-20T13:03:54.354Z,17.10
2023-03-20T13:06:39.502Z,16.89
2023-03-20T13:09:35.094Z,16.52
2023-03-20T13:12:15.041Z,16.24
2023-03-20T13:15:00.744Z,16.24
2023-03-20T13:17:53.724Z,16.37
2023-03-20T13:20:28.631Z,16.42
2023-03-20T13:23:05.578Z,16.59
2023-03-20T13:25:46.873Z,16.77
2023-03-20T13:28:13.582Z,16.94
2023-03-20T13:30:44.470Z,17.08
2023-03-20T13:33:35.520Z,17.22
2023-03-20T13:36:12.007Z,17.32
2023-03-20T13:38:44.943Z,17.35
2023-03-20T13:41:11.673Z,17.28
2023-03-20T13:43:41.487Z,17.23
2023-03-20T13:46:18.159Z,17.07
2023-03-20T13:48:45.354Z,16.81
2023-03-20T13:51:30.350Z,16.72
2023-03-20T13:54:16.344Z,16.81
2023-03-20T13:57:06.954Z,16.89
2023-03-20T13:59:36.405Z,16.83
2023-03-20T14:02:17.188Z,16.95
2023-03-20T14:04:44.659Z,16.94
2023-03-20T14:07:33.261Z,16.90
2023-03-20T14:10:21.244Z,16.91
2023-03-20T14:12:55.657Z,16.92
2023-03-20T14:15:26.210Z,16.82
2023-03-20T14:17:53.349Z,16.62
2023-03-20T14:23:35.247Z,16.52
2023-03-20T14:26:29.270Z,16.55
2023-03-20T14:29:01.283Z,16.51
2023-03-20T14:31:32.168Z,16.35
2023-03-20T14:34:11.170Z,16.22
2023-03-20T14:36:50.435Z,16.01
2023-03-20T14:39:23.637Z,15.77
2023-03-20T14:41:57.001Z,15.54
2023-03-20T14:44:28.721Z,15.41
2023-03-20T14:47:04.052Z,15.39
2023-03-20T14:50:07.780Z,15.43
2023-03-20T14:52:44.012Z,15.42
2023-03-20T14:55:34.781Z,15.50
2023-03-20T14:58:03.274Z,15.50
2023-03-20T15:00:34.321Z,15.47
2023-03-20T15:03:09.147Z,15.51
2023-03-20T15:05:37.440Z,15.45
2023-03-20T15:08:07.948Z,15.27
2023-03-20T15:10:37.832Z,15.10
2023-03-20T15:13:06.384Z,14.95
2023-03-20T15:15:34.087Z,14.77
2023-03-20T15:18:07.407Z,14.58
2023-03-20T15:20:35.462Z,14.42
2023-03-20T15:23:02.881Z,14.31
2023-03-20T15:25:39.539Z,14.20
2023-03-20T15:28:16.730Z,14.05
2023-03-20T15:30:47.862Z,13.85
2023-03-20T15:33:25.498Z,13.67
2023-03-20T15:35:53.403Z,13.49
2023-03-20T15:38:20.376Z,13.32
2023-03-20T15:40:51.553Z,13.14
2023-03-20T15:43:23.734Z,12.98
2023-03-20T15:45:57.587Z,12.87
2023-03-20T15:48:33.681Z,12.79
2023-03-20T15:51:04.409Z,12.71
2023-03-20T15:53:36.766Z,12.58
2023-03-20T15:56:17.337Z,12.50
2023-03-20T15:58:45.283Z,12.41
2023-03-20T16:01:17.120Z,12.34
2023-03-20T16:03:43.921Z,12.29
2023-03-20T16:06:11.776Z,12.20
2023-03-20T16:08:38.975Z,12.10
2023-03-20T16:11:12.654Z,12.00
2023-03-20T16:13:41.965Z,11.91
2023-03-20T16:16:13.460Z,11.83
2023-03-20T16:18:47.921Z,11.73
2023-03-20T16:21:21.393Z,11.62
2023-03-20T16:23:51.244Z,11.53
2023-03-20T16:26:19.797Z,11.43
2023-03-20T16:28:58.718Z,11.31
2023-03-20T16:31:34.155Z,11.18
2023-03-20T16:34:06.618Z,11.06
2023-03-20T16:36:36.022Z,10.94
2023-03-20T16:39:07.805Z,10.79
2023-03-20T16:41:39.929Z,10.64
2023-03-20T16:44:08.376Z,10.52
2023-03-20T16:46:35.588Z,10.44
2023-03-20T16:49:34.117Z,10.37
2023-03-20T16:52:03.063Z,10.25
2023-03-20T16:54:31.334Z,10.12
2023-03-20T16:56:58.282Z,10.01
2023-03-20T16:59:25.432Z,9.92
2023-03-20T17:01:54.529Z,9.85
2023-03-20T17:04:23.754Z,9.77
2023-03-20T17:06:57.835Z,9.65
2023-03-20T17:09:25.912Z,9.58
2023-03-20T17:12:05.743Z,9.52
2023-03-20T17:14:34.077Z,9.46
2023-03-20T17:17:01.313Z,9.43
2023-03-20T17:19:28.317Z,9.40
2023-03-20T17:21:57.161Z,9.35
2023-03-20T17:24:24.890Z,9.31
2023-03-20T17:26:53.592Z,9.26
2023-03-20T17:29:21.155Z,9.22
2023-03-20T17:31:48.209Z,9.18
2023-03-20T17:34:15.354Z,9.13
2023-03-20T17:36:43.230Z,9.07
2023-03-20T17:39:20.332Z,9.04
2023-03-20T17:41:47.775Z,9.00
2023-03-20T17:44:15.083Z,8.97
2023-03-20T17:47:02.158Z,8.94
2023-03-20T17:49:33.137Z,8.89
2023-03-20T17:52:00.316Z,8.87
2023-03-20T17:54:32.580Z,8.84
2023-03-20T17:56:59.911Z,8.82
2023-03-20T17:59:30.519Z,8.82
2023-03-20T18:01:57.764Z,8.83
2023-03-20T18:04:25.104Z,8.83
2023-03-20T18:06:57.341Z,8.82
2023-03-20T18:09:29.752Z,8.84
2023-03-20T18:11:56.963Z,8.84
2023-03-20T18:14:25.749Z,8.84
2023-03-20T18:16:53.303Z,8.82
2023-03-20T18:19:27.686Z,8.81
2023-03-20T18:21:56.137Z,8.79
2023-03-20T18:24:23.726Z,8.77
2023-03-20T18:26:51.184Z,8.75
2023-03-20T18:29:18.479Z,8.75
2023-03-20T18:31:46.985Z,8.74
2023-03-20T18:34:15.836Z,8.71
2023-03-20T18:36:45.151Z,8.69
2023-03-20T18:39:22.861Z,8.67
2023-03-20T18:41:50.511Z,8.67
2023-03-20T18:44:17.802Z,8.65
2023-03-20T18:46:44.838Z,8.60
2023-03-20T18:49:18.080Z,8.54
2023-03-20T18:51:46.213Z,8.49
2023-03-20T18:54:13.256Z,8.46
2023-03-20T18:56:44.370Z,8.44
2023-03-20T18:59:12.175Z,8.40
2023-03-20T19:01:39.447Z,8.35
2023-03-20T19:04:22.613Z,8.30
2023-03-20T19:06:49.634Z,8.24
2023-03-20T19:09:17.858Z,8.21
2023-03-20T19:11:47.402Z,8.19
2023-03-20T19:14:14.302Z,8.17
2023-03-20T19:16:42.222Z,8.14
2023-03-20T19:19:11.164Z,8.11
2023-03-20T19:21:38.635Z,8.08
2023-03-20T19:24:08.226Z,8.05
2023-03-20T19:26:36.909Z,8.02
2023-03-20T19:29:09.726Z,7.99
2023-03-20T19:31:37.994Z,7.96
2023-03-20T19:34:07.926Z,7.94
2023-03-20T19:36:36.494Z,7.91
2023-03-20T19:39:06.350Z,7.89
2023-03-20T19:41:34.753Z,7.86
2023-03-20T19:44:02.678Z,7.83
2023-03-20T19:46:41.431Z,7.80
2023-03-20T19:49:20.245Z,7.79
2023-03-20T19:51:48.494Z,7.76
2023-03-20T19:54:15.850Z,7.74
2023-03-20T19:56:46.890Z,7.70
2023-03-20T19:59:17.020Z,7.66
2023-03-20T20:01:45.391Z,7.65
2023-03-20T20:04:13.051Z,7.65
2023-03-20T20:06:41.878Z,7.66
2023-03-20T20:09:09.509Z,7.66
2023-03-20T20:11:37.674Z,7.65
2023-03-20T20:14:08.711Z,7.63
2023-03-20T20:16:39.915Z,7.58
2023-03-20T20:19:07.400Z,7.54
2023-03-20T20:24:23.391Z,7.45
2023-03-20T20:27:14.673Z,7.40
2023-03-20T20:29:46.337Z,7.37
2023-03-20T20:32:13.098Z,7.37
2023-03-20T20:38:14.099Z,7.34
2023-03-20T20:40:17.754Z,7.32
2023-03-20T20:42:47.448Z,7.27
2023-03-20T20:45:15.366Z,7.23
2023-03-20T20:47:44.158Z,7.18
2023-03-20T20:50:13.594Z,7.14
2023-03-20T20:52:41.766Z,7.10
2023-03-20T20:55:22.208Z,7.08
2023-03-20T20:57:53.226Z,7.05
2023-03-20T21:00:22.717Z,7.02
2023-03-20T21:02:49.589Z,7.00
2023-03-20T21:05:17.185Z,6.98
2023-03-20T21:07:46.417Z,6.95
2023-03-20T21:10:16.192Z,6.93
2023-03-20T21:12:58.128Z,6.93
2023-03-20T21:15:26.997Z,6.92
2023-03-20T21:18:01.019Z,6.93
2023-03-20T21:20:30.704Z,6.89
2023-03-20T21:22:58.245Z,6.86
2023-03-20T21:25:39.150Z,6.82
2023-03-20T21:28:07.963Z,6.77
2023-03-20T21:30:44.304Z,6.74
2023-03-20T21:33:20.619Z,6.69
2023-03-20T21:35:49.593Z,6.64
2023-03-20T21:41:10.549Z,6.57
2023-03-20T21:43:37.351Z,6.53
2023-03-20T21:46:45.221Z,6.49
2023-03-20T21:58:03.506Z,6.28
2023-03-20T22:00:52.753Z,6.26
2023-03-20T22:02:55.410Z,6.25
2023-03-20T22:11:56.702Z,6.20
2023-03-20T22:25:49.189Z,6.18
2023-03-20T22:37:10.998Z,6.04
2023-03-20T22:44:59.117Z,5.99
2023-03-20T22:47:27.440Z,5.99
2023-03-20T22:49:55.089Z,6.00
2023-03-20T22:52:31.708Z,6.00
2023-03-20T23:02:37.467Z,5.97
2023-03-20T23:05:06.986Z,5.96
2023-03-20T23:07:37.608Z,5.95
2023-03-20T23:10:09.646Z,5.95
2023-03-20T23:12:38.561Z,5.95
2023-03-20T23:15:08.415Z,5.94
2023-03-20T23:17:37.035Z,5.94
2023-03-20T23:20:13.335Z,5.94
2023-03-20T23:22:44.375Z,5.94
2023-03-20T23:25:20.993Z,5.93
2023-03-20T23:27:59.102Z,5.89
2023-03-20T23:30:30.896Z,5.86
2023-03-20T23:33:07.074Z,5.83
2023-03-20T23:35:35.512Z,5.81
2023-03-20T23:38:05.557Z,5.77
2023-03-20T23:40:39.665Z,5.71
2023-03-20T23:43:09.128Z,5.66
2023-03-20T23:45:38.764Z,5.63
2023-03-20T23:48:07.512Z,5.62
2023-03-20T23:50:51.494Z,5.61
2023-03-20T23:53:21.549Z,5.60
2023-03-20T23:55:52.209Z,5.60
2023-03-20T23:58:26.393Z,5.60
